sensor_id;sensor_type;location;lat;lon;timestamp;P1;P2;P0
62547;PMS7003;48602;45.192;5.722;2023-06-14T00:02:05;7.00;5.00;5.00
62547;PMS7003;48602;45.192;5.722;2023-06-14T00:04:33;4.00;4.00;3.00
62547;PMS7003;48602;45.192;5.722;2023-06-14T00:06:59;4.25;4.00;3.75
62547;PMS7003;48602;45.192;5.722;2023-06-14T00:09:24;4.00;4.00;3.75
62547;PMS7003;48602;45.192;5.722;2023-06-14T00:11:49;3.25;3.00;3.00
62547;PMS7003;48602;45.192;5.722;2023-06-14T00:14:15;3.50;3.25;3.00
62547;PMS7003;48602;45.192;5.722;2023-06-14T00:16:40;5.00;5.00;4.00
62547;PMS7003;48602;45.192;5.722;2023-06-14T00:19:07;4.60;3.80;3.20
62547;PMS7003;48602;45.192;5.722;2023-06-14T00:21:35;4.00;4.00;4.00
62547;PMS7003;48602;45.192;5.722;2023-06-14T00:24:01;7.00;7.00;5.00
62547;PMS7003;48602;45.192;5.722;2023-06-14T00:26:27;6.00;6.00;5.00
62547;PMS7003;48602;45.192;5.722;2023-06-14T00:28:53;7.00;7.00;6.00
62547;PMS7003;48602;45.192;5.722;2023-06-14T00:31:19;5.40;5.40;4.40
62547;PMS7003;48602;45.192;5.722;2023-06-14T00:33:45;5.75;4.75;4.25
62547;PMS7003;48602;45.192;5.722;2023-06-14T00:36:10;7.25;5.75;5.00
62547;PMS7003;48602;45.192;5.722;2023-06-14T00:38:36;6.00;6.00;5.00
62547;PMS7003;48602;45.192;5.722;2023-06-14T00:41:01;7.00;5.00;4.25
62547;PMS7003;48602;45.192;5.722;2023-06-14T00:43:26;5.00;5.00;5.00
62547;PMS7003;48602;45.192;5.722;2023-06-14T00:45:52;7.00;7.00;5.25
62547;PMS7003;48602;45.192;5.722;2023-06-14T00:48:17;5.25;5.25;5.00
62547;PMS7003;48602;45.192;5.722;2023-06-14T00:50:44;5.40;4.80;4.00
62547;PMS7003;48602;45.192;5.722;2023-06-14T00:53:14;6.00;5.00;4.80
62547;PMS7003;48602;45.192;5.722;2023-06-14T00:55:50;6.00;5.80;4.20
62547;PMS7003;48602;45.192;5.722;2023-06-14T00:58:15;6.00;5.00;4.00
62547;PMS7003;48602;45.192;5.722;2023-06-14T01:00:41;5.00;5.00;4.00
62547;PMS7003;48602;45.192;5.722;2023-06-14T01:03:07;5.75;5.00;4.00
62547;PMS7003;48602;45.192;5.722;2023-06-14T01:05:32;5.25;5.00;4.75
62547;PMS7003;48602;45.192;5.722;2023-06-14T01:15:46;7.60;6.00;5.00
62547;PMS7003;48602;45.192;5.722;2023-06-14T01:18:12;8.60;6.00;5.00
62547;PMS7003;48602;45.192;5.722;2023-06-14T01:20:45;5.00;5.00;4.40
62547;PMS7003;48602;45.192;5.722;2023-06-14T01:23:15;4.40;3.80;3.40
62547;PMS7003;48602;45.192;5.722;2023-06-14T01:25:42;5.20;5.20;4.60
62547;PMS7003;48602;45.192;5.722;2023-06-14T01:28:09;6.00;5.80;4.20
62547;PMS7003;48602;45.192;5.722;2023-06-14T01:30:36;6.20;6.20;5.00
62547;PMS7003;48602;45.192;5.722;2023-06-14T01:33:03;5.00;5.00;4.00
62547;PMS7003;48602;45.192;5.722;2023-06-14T01:35:30;5.80;5.80;4.80
62547;PMS7003;48602;45.192;5.722;2023-06-14T01:37:56;7.00;6.25;5.00
62547;PMS7003;48602;45.192;5.722;2023-06-14T01:40:22;6.00;5.20;4.80
62547;PMS7003;48602;45.192;5.722;2023-06-14T01:42:49;5.40;5.40;5.00
62547;PMS7003;48602;45.192;5.722;2023-06-14T01:45:15;6.00;5.00;5.00
62547;PMS7003;48602;45.192;5.722;2023-06-14T01:47:42;8.00;7.00;5.80
62547;PMS7003;48602;45.192;5.722;2023-06-14T01:50:09;8.20;7.60;6.20
62547;PMS7003;48602;45.192;5.722;2023-06-14T01:52:36;4.50;3.50;3.00
62547;PMS7003;48602;45.192;5.722;2023-06-14T01:55:02;4.40;4.40;4.00
62547;PMS7003;48602;45.192;5.722;2023-06-14T01:57:28;4.25;3.00;3.00
62547;PMS7003;48602;45.192;5.722;2023-06-14T01:59:53;4.00;3.50;2.75
62547;PMS7003;48602;45.192;5.722;2023-06-14T02:02:18;3.00;3.00;3.00
62547;PMS7003;48602;45.192;5.722;2023-06-14T02:04:44;3.00;2.00;2.00
62547;PMS7003;48602;45.192;5.722;2023-06-14T02:07:12;4.00;4.00;3.60
62547;PMS7003;48602;45.192;5.722;2023-06-14T02:09:38;4.50;4.00;4.00
62547;PMS7003;48602;45.192;5.722;2023-06-14T02:12:03;4.00;4.00;3.25
62547;PMS7003;48602;45.192;5.722;2023-06-14T02:14:28;4.25;3.00;3.00
62547;PMS7003;48602;45.192;5.722;2023-06-14T02:16:54;4.00;4.00;3.50
62547;PMS7003;48602;45.192;5.722;2023-06-14T02:19:20;7.25;4.00;4.00
62547;PMS7003;48602;45.192;5.722;2023-06-14T02:21:45;1.50;0.50;0.00
62547;PMS7003;48602;45.192;5.722;2023-06-14T02:24:12;5.00;3.20;3.00
62547;PMS7003;48602;45.192;5.722;2023-06-14T02:26:37;6.20;4.20;4.00
62547;PMS7003;48602;45.192;5.722;2023-06-14T02:29:04;5.00;4.75;3.25
62547;PMS7003;48602;45.192;5.722;2023-06-14T02:31:31;4.00;2.60;2.40
62547;PMS7003;48602;45.192;5.722;2023-06-14T02:33:57;5.60;5.60;4.40
62547;PMS7003;48602;45.192;5.722;2023-06-14T02:36:22;4.25;4.25;3.00
62547;PMS7003;48602;45.192;5.722;2023-06-14T02:38:48;4.75;4.00;4.00
62547;PMS7003;48602;45.192;5.722;2023-06-14T02:41:13;5.00;5.00;4.00
62547;PMS7003;48602;45.192;5.722;2023-06-14T02:43:39;5.25;5.00;4.00
62547;PMS7003;48602;45.192;5.722;2023-06-14T02:46:04;6.00;4.50;4.50
62547;PMS7003;48602;45.192;5.722;2023-06-14T02:48:30;6.50;6.00;5.75
62547;PMS7003;48602;45.192;5.722;2023-06-14T02:50:55;5.00;5.00;4.00
62547;PMS7003;48602;45.192;5.722;2023-06-14T02:53:21;5.60;4.40;4.00
62547;PMS7003;48602;45.192;5.722;2023-06-14T02:55:47;6.00;5.00;4.75
62547;PMS7003;48602;45.192;5.722;2023-06-14T02:58:13;6.20;4.00;3.00
62547;PMS7003;48602;45.192;5.722;2023-06-14T03:00:39;4.40;3.20;3.20
62547;PMS7003;48602;45.192;5.722;2023-06-14T03:03:06;8.40;6.20;5.20
62547;PMS7003;48602;45.192;5.722;2023-06-14T03:05:38;5.20;5.20;4.40
62547;PMS7003;48602;45.192;5.722;2023-06-14T03:08:11;5.40;3.80;3.40
62547;PMS7003;48602;45.192;5.722;2023-06-14T03:10:41;5.40;5.00;4.60
62547;PMS7003;48602;45.192;5.722;2023-06-14T03:13:11;7.20;6.40;5.00
62547;PMS7003;48602;45.192;5.722;2023-06-14T03:15:37;4.00;4.00;3.75
62547;PMS7003;48602;45.192;5.722;2023-06-14T03:18:03;6.00;6.00;5.00
62547;PMS7003;48602;45.192;5.722;2023-06-14T03:20:29;6.00;6.00;5.00
62547;PMS7003;48602;45.192;5.722;2023-06-14T03:22:58;9.00;5.20;5.00
62547;PMS7003;48602;45.192;5.722;2023-06-14T03:25:24;5.60;5.60;5.00
62547;PMS7003;48602;45.192;5.722;2023-06-14T03:27:50;6.60;6.60;5.00
62547;PMS7003;48602;45.192;5.722;2023-06-14T03:30:16;7.25;6.00;5.00
62547;PMS7003;48602;45.192;5.722;2023-06-14T03:32:42;5.75;5.75;5.25
62547;PMS7003;48602;45.192;5.722;2023-06-14T03:35:07;6.00;6.00;6.00
62547;PMS7003;48602;45.192;5.722;2023-06-14T03:37:33;6.20;6.20;5.00
62547;PMS7003;48602;45.192;5.722;2023-06-14T03:39:59;5.00;5.00;5.00
62547;PMS7003;48602;45.192;5.722;2023-06-14T03:42:25;6.20;6.20;4.60
62547;PMS7003;48602;45.192;5.722;2023-06-14T03:44:51;4.75;4.75;4.00
62547;PMS7003;48602;45.192;5.722;2023-06-14T03:47:16;6.00;5.00;4.25
62547;PMS7003;48602;45.192;5.722;2023-06-14T03:49:42;5.75;5.75;5.75
62547;PMS7003;48602;45.192;5.722;2023-06-14T03:52:07;7.50;6.00;5.50
62547;PMS7003;48602;45.192;5.722;2023-06-14T03:54:32;7.50;5.25;4.25
62547;PMS7003;48602;45.192;5.722;2023-06-14T03:56:58;5.75;4.00;4.00
62547;PMS7003;48602;45.192;5.722;2023-06-14T03:59:24;6.20;6.20;5.20
62547;PMS7003;48602;45.192;5.722;2023-06-14T04:01:50;5.80;4.60;4.00
62547;PMS7003;48602;45.192;5.722;2023-06-14T04:04:16;4.75;4.75;4.25
62547;PMS7003;48602;45.192;5.722;2023-06-14T04:06:43;6.60;6.00;5.40
62547;PMS7003;48602;45.192;5.722;2023-06-14T04:09:08;5.00;5.00;5.00
62547;PMS7003;48602;45.192;5.722;2023-06-14T04:11:34;6.50;5.75;4.75
62547;PMS7003;48602;45.192;5.722;2023-06-14T04:13:59;6.00;6.00;5.75
62547;PMS7003;48602;45.192;5.722;2023-06-14T04:16:24;7.00;5.00;5.00
62547;PMS7003;48602;45.192;5.722;2023-06-14T04:18:50;7.00;5.75;4.75
62547;PMS7003;48602;45.192;5.722;2023-06-14T04:21:17;6.00;4.20;4.00
62547;PMS7003;48602;45.192;5.722;2023-06-14T04:23:43;5.00;5.00;4.00
62547;PMS7003;48602;45.192;5.722;2023-06-14T04:26:09;5.50;5.50;5.00
62547;PMS7003;48602;45.192;5.722;2023-06-14T04:28:35;5.40;4.60;4.20
62547;PMS7003;48602;45.192;5.722;2023-06-14T04:31:05;1.80;1.80;0.20
62547;PMS7003;48602;45.192;5.722;2023-06-14T04:33:35;7.20;7.20;6.20
62547;PMS7003;48602;45.192;5.722;2023-06-14T04:36:08;7.00;7.00;6.00
62547;PMS7003;48602;45.192;5.722;2023-06-14T04:38:37;7.80;7.40;5.60
62547;PMS7003;48602;45.192;5.722;2023-06-14T04:41:03;7.50;6.75;5.00
62547;PMS7003;48602;45.192;5.722;2023-06-14T04:43:28;7.75;6.50;5.50
62547;PMS7003;48602;45.192;5.722;2023-06-14T04:45:54;8.00;6.00;5.00
62547;PMS7003;48602;45.192;5.722;2023-06-14T04:48:21;6.80;6.80;5.80
62547;PMS7003;48602;45.192;5.722;2023-06-14T04:50:47;7.00;7.00;6.00
62547;PMS7003;48602;45.192;5.722;2023-06-14T04:53:17;6.00;6.00;5.20
62547;PMS7003;48602;45.192;5.722;2023-06-14T04:55:46;5.60;5.00;4.40
62547;PMS7003;48602;45.192;5.722;2023-06-14T04:58:11;5.25;5.25;4.75
62547;PMS7003;48602;45.192;5.722;2023-06-14T05:00:37;3.60;2.80;2.00
62547;PMS7003;48602;45.192;5.722;2023-06-14T05:03:03;6.25;4.75;4.50
62547;PMS7003;48602;45.192;5.722;2023-06-14T05:05:30;9.40;7.20;6.60
62547;PMS7003;48602;45.192;5.722;2023-06-14T05:07:57;7.00;6.00;5.80
62547;PMS7003;48602;45.192;5.722;2023-06-14T05:10:22;6.75;6.75;5.75
62547;PMS7003;48602;45.192;5.722;2023-06-14T05:12:48;7.25;7.25;5.00
62547;PMS7003;48602;45.192;5.722;2023-06-14T05:15:14;8.25;8.25;6.75
62547;PMS7003;48602;45.192;5.722;2023-06-14T05:17:39;5.25;4.00;4.00
62547;PMS7003;48602;45.192;5.722;2023-06-14T05:20:06;8.00;7.25;6.00
62547;PMS7003;48602;45.192;5.722;2023-06-14T05:22:32;9.20;8.00;6.00
62547;PMS7003;48602;45.192;5.722;2023-06-14T05:24:57;6.00;6.00;5.00
62547;PMS7003;48602;45.192;5.722;2023-06-14T05:27:23;10.75;10.00;9.25
62547;PMS7003;48602;45.192;5.722;2023-06-14T05:29:49;12.40;10.20;8.40
62547;PMS7003;48602;45.192;5.722;2023-06-14T05:32:15;10.00;10.00;7.00
62547;PMS7003;48602;45.192;5.722;2023-06-14T05:34:40;8.25;7.00;6.00
62547;PMS7003;48602;45.192;5.722;2023-06-14T05:37:07;8.00;7.80;6.60
62547;PMS7003;48602;45.192;5.722;2023-06-14T05:39:32;11.25;9.50;8.00
62547;PMS7003;48602;45.192;5.722;2023-06-14T05:41:58;11.25;11.25;8.25
62547;PMS7003;48602;45.192;5.722;2023-06-14T05:44:23;11.25;10.00;8.00
62547;PMS7003;48602;45.192;5.722;2023-06-14T05:46:49;12.00;10.75;8.25
62547;PMS7003;48602;45.192;5.722;2023-06-14T05:49:15;9.75;9.75;8.00
62547;PMS7003;48602;45.192;5.722;2023-06-14T05:51:40;10.00;8.50;7.00
62547;PMS7003;48602;45.192;5.722;2023-06-14T05:54:07;8.40;7.20;6.20
62547;PMS7003;48602;45.192;5.722;2023-06-14T05:56:32;10.00;10.00;9.00
62547;PMS7003;48602;45.192;5.722;2023-06-14T05:58:57;7.75;7.00;6.50
62547;PMS7003;48602;45.192;5.722;2023-06-14T06:01:23;10.00;8.00;7.00
62547;PMS7003;48602;45.192;5.722;2023-06-14T06:03:48;10.00;9.00;7.75
62547;PMS7003;48602;45.192;5.722;2023-06-14T06:06:14;7.50;7.50;7.00
62547;PMS7003;48602;45.192;5.722;2023-06-14T06:08:40;8.00;7.40;6.80
62547;PMS7003;48602;45.192;5.722;2023-06-14T06:11:05;10.00;9.25;8.00
62547;PMS7003;48602;45.192;5.722;2023-06-14T06:13:31;10.75;9.00;8.00
62547;PMS7003;48602;45.192;5.722;2023-06-14T06:15:56;7.75;7.25;5.50
62547;PMS7003;48602;45.192;5.722;2023-06-14T06:18:22;8.75;8.00;8.00
62547;PMS7003;48602;45.192;5.722;2023-06-14T06:20:47;9.75;9.75;7.75
62547;PMS7003;48602;45.192;5.722;2023-06-14T06:23:13;8.75;8.75;7.00
62547;PMS7003;48602;45.192;5.722;2023-06-14T06:25:38;9.25;9.25;8.25
62547;PMS7003;48602;45.192;5.722;2023-06-14T06:28:03;9.00;9.00;8.50
62547;PMS7003;48602;45.192;5.722;2023-06-14T06:30:29;11.00;10.50;8.75
62547;PMS7003;48602;45.192;5.722;2023-06-14T06:32:54;12.25;12.25;9.25
62547;PMS7003;48602;45.192;5.722;2023-06-14T06:35:20;13.40;12.80;10.60
62547;PMS7003;48602;45.192;5.722;2023-06-14T06:37:46;11.75;11.00;9.00
62547;PMS7003;48602;45.192;5.722;2023-06-14T06:40:11;13.25;11.25;9.25
62547;PMS7003;48602;45.192;5.722;2023-06-14T06:42:37;20.50;17.75;12.50
62547;PMS7003;48602;45.192;5.722;2023-06-14T06:45:03;15.25;13.00;10.00
62547;PMS7003;48602;45.192;5.722;2023-06-14T06:47:29;10.60;10.60;8.80
62547;PMS7003;48602;45.192;5.722;2023-06-14T06:49:55;10.50;10.50;9.00
62547;PMS7003;48602;45.192;5.722;2023-06-14T06:52:20;16.00;14.00;11.25
62547;PMS7003;48602;45.192;5.722;2023-06-14T06:54:46;10.50;10.50;9.00
62547;PMS7003;48602;45.192;5.722;2023-06-14T06:57:11;11.50;10.75;9.00
62547;PMS7003;48602;45.192;5.722;2023-06-14T06:59:37;13.75;12.75;10.00
62547;PMS7003;48602;45.192;5.722;2023-06-14T07:02:02;13.25;11.75;9.75
62547;PMS7003;48602;45.192;5.722;2023-06-14T07:04:28;15.80;12.00;10.00
62547;PMS7003;48602;45.192;5.722;2023-06-14T07:06:53;12.50;11.00;10.00
62547;PMS7003;48602;45.192;5.722;2023-06-14T07:09:19;11.25;10.00;8.00
62547;PMS7003;48602;45.192;5.722;2023-06-14T07:11:46;10.20;10.20;8.80
62547;PMS7003;48602;45.192;5.722;2023-06-14T07:14:12;16.00;12.60;10.00
62547;PMS7003;48602;45.192;5.722;2023-06-14T07:16:37;14.50;13.50;10.50
62547;PMS7003;48602;45.192;5.722;2023-06-14T07:19:03;15.75;14.00;9.00
62547;PMS7003;48602;45.192;5.722;2023-06-14T07:21:29;12.25;12.25;10.50
62547;PMS7003;48602;45.192;5.722;2023-06-14T07:23:55;13.75;11.50;9.25
62547;PMS7003;48602;45.192;5.722;2023-06-14T07:26:21;14.20;13.20;10.80
62547;PMS7003;48602;45.192;5.722;2023-06-14T07:28:46;13.00;13.00;11.00
62547;PMS7003;48602;45.192;5.722;2023-06-14T07:31:13;13.00;12.40;10.00
62547;PMS7003;48602;45.192;5.722;2023-06-14T07:33:40;16.80;16.20;11.80
62547;PMS7003;48602;45.192;5.722;2023-06-14T07:36:06;14.20;14.20;10.80
62547;PMS7003;48602;45.192;5.722;2023-06-14T07:38:32;14.00;12.75;10.00
62547;PMS7003;48602;45.192;5.722;2023-06-14T07:40:57;14.00;14.00;11.50
62547;PMS7003;48602;45.192;5.722;2023-06-14T07:43:22;13.75;12.00;10.00
62547;PMS7003;48602;45.192;5.722;2023-06-14T07:45:48;13.00;12.50;9.25
62547;PMS7003;48602;45.192;5.722;2023-06-14T07:48:13;13.50;13.00;10.25
62547;PMS7003;48602;45.192;5.722;2023-06-14T07:50:39;10.00;10.00;8.00
62547;PMS7003;48602;45.192;5.722;2023-06-14T07:53:04;12.75;11.25;9.50
62547;PMS7003;48602;45.192;5.722;2023-06-14T07:55:30;12.25;10.75;8.00
62547;PMS7003;48602;45.192;5.722;2023-06-14T07:57:57;14.60;13.20;10.60
62547;PMS7003;48602;45.192;5.722;2023-06-14T08:00:23;11.50;9.50;8.50
62547;PMS7003;48602;45.192;5.722;2023-06-14T08:02:48;13.75;10.75;9.00
62547;PMS7003;48602;45.192;5.722;2023-06-14T08:05:24;9.40;9.40;7.80
62547;PMS7003;48602;45.192;5.722;2023-06-14T08:07:50;10.80;10.80;8.80
62547;PMS7003;48602;45.192;5.722;2023-06-14T08:10:16;12.00;10.00;8.25
62547;PMS7003;48602;45.192;5.722;2023-06-14T08:12:42;9.75;9.75;7.75
62547;PMS7003;48602;45.192;5.722;2023-06-14T08:15:07;9.00;9.00;8.00
62547;PMS7003;48602;45.192;5.722;2023-06-14T08:17:34;15.00;10.40;8.60
62547;PMS7003;48602;45.192;5.722;2023-06-14T08:19:59;13.00;13.00;10.50
62547;PMS7003;48602;45.192;5.722;2023-06-14T08:22:24;9.75;9.75;8.00
62547;PMS7003;48602;45.192;5.722;2023-06-14T08:24:50;13.80;12.60;9.80
62547;PMS7003;48602;45.192;5.722;2023-06-14T08:27:18;8.20;7.20;6.20
62547;PMS7003;48602;45.192;5.722;2023-06-14T08:29:43;9.00;9.00;7.00
62547;PMS7003;48602;45.192;5.722;2023-06-14T08:32:09;8.20;8.20;7.40
62547;PMS7003;48602;45.192;5.722;2023-06-14T08:34:35;7.75;7.75;7.00
62547;PMS7003;48602;45.192;5.722;2023-06-14T08:37:00;11.25;10.00;8.00
62547;PMS7003;48602;45.192;5.722;2023-06-14T08:39:26;14.50;13.00;10.50
62547;PMS7003;48602;45.192;5.722;2023-06-14T08:41:52;8.50;8.50;8.00
62547;PMS7003;48602;45.192;5.722;2023-06-14T08:44:17;5.25;3.25;2.00
62547;PMS7003;48602;45.192;5.722;2023-06-14T08:46:43;8.00;8.00;7.00
62547;PMS7003;48602;45.192;5.722;2023-06-14T08:49:11;10.50;10.50;9.00
62547;PMS7003;48602;45.192;5.722;2023-06-14T08:51:37;9.00;8.60;6.60
62547;PMS7003;48602;45.192;5.722;2023-06-14T08:54:03;7.00;7.00;5.75
62547;PMS7003;48602;45.192;5.722;2023-06-14T08:56:30;12.40;11.00;8.80
62547;PMS7003;48602;45.192;5.722;2023-06-14T08:58:57;11.20;11.20;9.80
62547;PMS7003;48602;45.192;5.722;2023-06-14T09:01:27;9.40;8.00;7.20
62547;PMS7003;48602;45.192;5.722;2023-06-14T09:03:53;10.00;9.25;7.75
62547;PMS7003;48602;45.192;5.722;2023-06-14T09:06:22;10.80;9.20;8.00
62547;PMS7003;48602;45.192;5.722;2023-06-14T09:08:48;8.00;8.00;6.40
62547;PMS7003;48602;45.192;5.722;2023-06-14T09:11:15;12.00;9.80;8.20
62547;PMS7003;48602;45.192;5.722;2023-06-14T09:13:43;9.20;8.00;7.00
62547;PMS7003;48602;45.192;5.722;2023-06-14T09:16:09;10.50;10.50;8.00
62547;PMS7003;48602;45.192;5.722;2023-06-14T09:18:35;10.75;10.75;9.50
62547;PMS7003;48602;45.192;5.722;2023-06-14T09:21:02;8.20;8.20;7.20
62547;PMS7003;48602;45.192;5.722;2023-06-14T09:23:28;7.00;6.75;6.00
62547;PMS7003;48602;45.192;5.722;2023-06-14T09:25:53;8.25;7.00;6.25
62547;PMS7003;48602;45.192;5.722;2023-06-14T09:28:19;9.25;9.25;7.75
62547;PMS7003;48602;45.192;5.722;2023-06-14T09:30:47;7.00;7.00;6.00
62547;PMS7003;48602;45.192;5.722;2023-06-14T09:33:16;6.00;6.00;5.00
62547;PMS7003;48602;45.192;5.722;2023-06-14T09:35:44;8.80;8.00;6.00
62547;PMS7003;48602;45.192;5.722;2023-06-14T09:38:10;5.60;5.60;4.40
62547;PMS7003;48602;45.192;5.722;2023-06-14T09:40:36;5.50;5.50;5.25
62547;PMS7003;48602;45.192;5.722;2023-06-14T09:43:03;5.75;5.75;5.25
62547;PMS7003;48602;45.192;5.722;2023-06-14T09:45:31;7.20;6.00;5.40
62547;PMS7003;48602;45.192;5.722;2023-06-14T09:47:58;6.80;6.00;5.00
62547;PMS7003;48602;45.192;5.722;2023-06-14T09:50:23;5.00;5.00;4.00
62547;PMS7003;48602;45.192;5.722;2023-06-14T09:52:49;5.00;5.00;5.00
62547;PMS7003;48602;45.192;5.722;2023-06-14T09:55:17;5.00;5.00;4.60
62547;PMS7003;48602;45.192;5.722;2023-06-14T09:57:44;6.20;5.80;4.80
62547;PMS7003;48602;45.192;5.722;2023-06-14T10:00:12;7.80;5.20;5.00
62547;PMS7003;48602;45.192;5.722;2023-06-14T10:02:40;7.00;7.00;6.60
62547;PMS7003;48602;45.192;5.722;2023-06-14T10:05:14;7.20;5.80;4.20
62547;PMS7003;48602;45.192;5.722;2023-06-14T10:07:44;6.20;5.80;5.20
62547;PMS7003;48602;45.192;5.722;2023-06-14T10:10:17;9.60;7.60;6.80
62547;PMS7003;48602;45.192;5.722;2023-06-14T10:12:43;6.80;6.80;6.00
62547;PMS7003;48602;45.192;5.722;2023-06-14T10:15:09;6.00;6.00;5.00
62547;PMS7003;48602;45.192;5.722;2023-06-14T10:17:52;8.60;7.80;6.60
62547;PMS7003;48602;45.192;5.722;2023-06-14T10:23:07;8.40;6.80;5.80
62547;PMS7003;48602;45.192;5.722;2023-06-14T10:25:38;7.80;7.80;7.20
62547;PMS7003;48602;45.192;5.722;2023-06-14T10:28:16;8.00;8.00;7.00
62547;PMS7003;48602;45.192;5.722;2023-06-14T10:36:29;7.80;6.80;6.00
62547;PMS7003;48602;45.192;5.722;2023-06-14T10:39:10;9.60;8.60;8.00
62547;PMS7003;48602;45.192;5.722;2023-06-14T10:41:40;8.20;8.00;6.80
62547;PMS7003;48602;45.192;5.722;2023-06-14T10:46:38;8.00;8.00;7.80
62547;PMS7003;48602;45.192;5.722;2023-06-14T10:49:17;11.80;11.60;9.80
62547;PMS7003;48602;45.192;5.722;2023-06-14T10:51:46;10.40;10.40;9.40
62547;PMS7003;48602;45.192;5.722;2023-06-14T10:54:24;9.40;8.40;8.00
62547;PMS7003;48602;45.192;5.722;2023-06-14T10:56:52;9.00;9.00;8.00
62547;PMS7003;48602;45.192;5.722;2023-06-14T10:59:19;8.60;8.00;7.40
62547;PMS7003;48602;45.192;5.722;2023-06-14T11:07:37;8.60;8.60;7.00
62547;PMS7003;48602;45.192;5.722;2023-06-14T11:13:01;10.20;10.20;8.80
62547;PMS7003;48602;45.192;5.722;2023-06-14T11:15:31;8.20;8.20;7.20
62547;PMS7003;48602;45.192;5.722;2023-06-14T11:17:57;8.60;8.60;8.40
62547;PMS7003;48602;45.192;5.722;2023-06-14T11:20:26;12.40;12.00;9.60
62547;PMS7003;48602;45.192;5.722;2023-06-14T11:22:52;9.60;9.40;8.80
62547;PMS7003;48602;45.192;5.722;2023-06-14T11:25:19;11.40;10.80;9.80
62547;PMS7003;48602;45.192;5.722;2023-06-14T11:27:45;11.00;10.00;8.25
62547;PMS7003;48602;45.192;5.722;2023-06-14T11:30:11;9.00;9.00;8.25
62547;PMS7003;48602;45.192;5.722;2023-06-14T11:32:38;8.00;8.00;7.40
62547;PMS7003;48602;45.192;5.722;2023-06-14T11:35:04;10.00;10.00;8.25
62547;PMS7003;48602;45.192;5.722;2023-06-14T11:37:30;10.60;10.60;9.60
62547;PMS7003;48602;45.192;5.722;2023-06-14T11:39:56;9.80;9.80;7.80
62547;PMS7003;48602;45.192;5.722;2023-06-14T11:42:22;11.40;11.40;10.00
62547;PMS7003;48602;45.192;5.722;2023-06-14T11:44:49;11.50;7.50;7.00
62547;PMS7003;48602;45.192;5.722;2023-06-14T11:47:15;11.40;10.80;9.00
62547;PMS7003;48602;45.192;5.722;2023-06-14T11:49:40;11.50;11.25;9.75
62547;PMS7003;48602;45.192;5.722;2023-06-14T11:52:07;13.75;11.75;9.75
62547;PMS7003;48602;45.192;5.722;2023-06-14T11:54:32;12.40;11.40;10.20
62547;PMS7003;48602;45.192;5.722;2023-06-14T11:56:58;15.00;13.50;11.75
62547;PMS7003;48602;45.192;5.722;2023-06-14T11:59:24;8.00;8.00;5.75
62547;PMS7003;48602;45.192;5.722;2023-06-14T12:01:50;10.50;9.50;7.50
62547;PMS7003;48602;45.192;5.722;2023-06-14T12:04:28;11.60;11.60;10.00
62547;PMS7003;48602;45.192;5.722;2023-06-14T12:06:54;11.80;11.40;9.20
62547;PMS7003;48602;45.192;5.722;2023-06-14T12:09:21;12.20;12.20;10.80
62547;PMS7003;48602;45.192;5.722;2023-06-14T12:11:48;12.60;12.60;9.80
62547;PMS7003;48602;45.192;5.722;2023-06-14T12:14:14;9.50;9.50;9.00
62547;PMS7003;48602;45.192;5.722;2023-06-14T12:16:41;11.20;11.00;9.20
62547;PMS7003;48602;45.192;5.722;2023-06-14T12:19:12;10.80;10.40;9.80
62547;PMS7003;48602;45.192;5.722;2023-06-14T12:21:38;13.20;13.20;9.40
62547;PMS7003;48602;45.192;5.722;2023-06-14T12:24:05;13.40;12.60;11.00
62547;PMS7003;48602;45.192;5.722;2023-06-14T12:26:32;12.40;11.00;10.00
62547;PMS7003;48602;45.192;5.722;2023-06-14T12:28:57;11.50;11.50;9.50
62547;PMS7003;48602;45.192;5.722;2023-06-14T12:31:23;8.50;8.50;7.25
62547;PMS7003;48602;45.192;5.722;2023-06-14T12:33:49;14.00;11.25;9.75
62547;PMS7003;48602;45.192;5.722;2023-06-14T12:36:15;14.25;14.25;12.50
62547;PMS7003;48602;45.192;5.722;2023-06-14T12:38:41;9.40;9.20;7.80
62547;PMS7003;48602;45.192;5.722;2023-06-14T12:41:07;10.25;10.25;8.75
62547;PMS7003;48602;45.192;5.722;2023-06-14T12:43:33;7.25;7.25;6.50
62547;PMS7003;48602;45.192;5.722;2023-06-14T12:45:58;11.00;11.00;9.00
62547;PMS7003;48602;45.192;5.722;2023-06-14T12:48:25;11.00;8.80;7.20
62547;PMS7003;48602;45.192;5.722;2023-06-14T12:50:52;14.60;12.60;11.00
62547;PMS7003;48602;45.192;5.722;2023-06-14T12:53:17;9.75;9.75;8.00
62547;PMS7003;48602;45.192;5.722;2023-06-14T12:55:43;9.25;8.75;6.75
62547;PMS7003;48602;45.192;5.722;2023-06-14T12:58:09;14.00;12.50;11.00
62547;PMS7003;48602;45.192;5.722;2023-06-14T13:00:37;7.80;7.80;7.20
62547;PMS7003;48602;45.192;5.722;2023-06-14T13:03:02;10.00;9.25;8.00
62547;PMS7003;48602;45.192;5.722;2023-06-14T13:05:28;13.00;13.00;10.75
62547;PMS7003;48602;45.192;5.722;2023-06-14T13:07:53;12.50;12.00;10.25
62547;PMS7003;48602;45.192;5.722;2023-06-14T13:10:18;13.00;11.00;9.00
62547;PMS7003;48602;45.192;5.722;2023-06-14T13:12:44;11.25;11.00;9.75
62547;PMS7003;48602;45.192;5.722;2023-06-14T13:15:10;9.75;9.75;8.25
62547;PMS7003;48602;45.192;5.722;2023-06-14T13:17:36;16.50;15.25;13.25
62547;PMS7003;48602;45.192;5.722;2023-06-14T13:20:05;10.80;8.40;7.20
62547;PMS7003;48602;45.192;5.722;2023-06-14T13:22:32;12.25;10.00;9.00
62547;PMS7003;48602;45.192;5.722;2023-06-14T13:24:57;12.75;12.00;11.00
62547;PMS7003;48602;45.192;5.722;2023-06-14T13:27:23;11.75;11.75;10.25
62547;PMS7003;48602;45.192;5.722;2023-06-14T13:29:49;12.20;11.40;10.80
62547;PMS7003;48602;45.192;5.722;2023-06-14T13:32:14;9.00;9.00;7.75
62547;PMS7003;48602;45.192;5.722;2023-06-14T13:34:40;12.50;11.25;9.00
62547;PMS7003;48602;45.192;5.722;2023-06-14T13:37:05;11.50;10.00;8.00
62547;PMS7003;48602;45.192;5.722;2023-06-14T13:39:31;10.75;10.75;8.75
62547;PMS7003;48602;45.192;5.722;2023-06-14T13:41:56;15.50;12.50;10.25
62547;PMS7003;48602;45.192;5.722;2023-06-14T13:44:22;15.00;15.00;11.25
62547;PMS7003;48602;45.192;5.722;2023-06-14T13:46:47;11.50;11.50;9.00
62547;PMS7003;48602;45.192;5.722;2023-06-14T13:49:12;7.00;7.00;6.00
62547;PMS7003;48602;45.192;5.722;2023-06-14T13:51:38;12.00;12.00;10.00
62547;PMS7003;48602;45.192;5.722;2023-06-14T13:54:03;12.75;12.75;11.25
62547;PMS7003;48602;45.192;5.722;2023-06-14T13:56:29;9.75;9.00;8.00
62547;PMS7003;48602;45.192;5.722;2023-06-14T13:58:55;8.00;8.00;7.25
62547;PMS7003;48602;45.192;5.722;2023-06-14T14:01:21;15.25;15.25;13.75
62547;PMS7003;48602;45.192;5.722;2023-06-14T14:03:47;13.00;12.75;11.25
62547;PMS7003;48602;45.192;5.722;2023-06-14T14:06:14;15.60;12.80;10.40
62547;PMS7003;48602;45.192;5.722;2023-06-14T14:08:40;12.75;12.25;10.75
62547;PMS7003;48602;45.192;5.722;2023-06-14T14:11:06;16.00;14.75;13.00
62547;PMS7003;48602;45.192;5.722;2023-06-14T14:13:32;16.25;16.25;12.75
62547;PMS7003;48602;45.192;5.722;2023-06-14T14:15:58;16.40;15.20;12.00
62547;PMS7003;48602;45.192;5.722;2023-06-14T14:18:24;16.50;14.75;13.00
62547;PMS7003;48602;45.192;5.722;2023-06-14T14:20:50;12.25;10.50;9.00
62547;PMS7003;48602;45.192;5.722;2023-06-14T14:23:15;15.50;14.25;12.75
62547;PMS7003;48602;45.192;5.722;2023-06-14T14:25:41;17.25;17.25;14.00
62547;PMS7003;48602;45.192;5.722;2023-06-14T14:28:06;13.50;13.50;12.00
62547;PMS7003;48602;45.192;5.722;2023-06-14T14:30:32;13.50;13.00;11.00
62547;PMS7003;48602;45.192;5.722;2023-06-14T14:32:57;13.00;13.00;12.50
62547;PMS7003;48602;45.192;5.722;2023-06-14T14:35:23;14.25;14.25;12.25